sensor_id;sensor_type;location;lat;lon;timestamp;temperature;humidity
10316;DHT22;5203;48.976;8.306;2023-05-07T00:01:25;16.60;84.20
10316;DHT22;5203;48.976;8.306;2023-05-07T00:03:51;16.60;83.90
10316;DHT22;5203;48.976;8.306;2023-05-07T00:06:18;16.70;83.00
10316;DHT22;5203;48.976;8.306;2023-05-07T00:08:44;16.90;82.20
10316;DHT22;5203;48.976;8.306;2023-05-07T00:11:10;17.00;81.20
10316;DHT22;5203;48.976;8.306;2023-05-07T00:13:36;17.00;80.90
10316;DHT22;5203;48.976;8.306;2023-05-07T00:16:02;17.00;81.00
10316;DHT22;5203;48.976;8.306;2023-05-07T00:18:28;17.00;81.30
10316;DHT22;5203;48.976;8.306;2023-05-07T00:20:54;17.00;81.50
10316;DHT22;5203;48.976;8.306;2023-05-07T00:23:19;16.80;81.80
10316;DHT22;5203;48.976;8.306;2023-05-07T00:25:45;16.80;82.20
10316;DHT22;5203;48.976;8.306;2023-05-07T00:28:11;16.70;82.70
10316;DHT22;5203;48.976;8.306;2023-05-07T00:30:36;16.60;83.00
10316;DHT22;5203;48.976;8.306;2023-05-07T00:33:02;16.60;83.60
10316;DHT22;5203;48.976;8.306;2023-05-07T00:35:28;16.50;84.00
10316;DHT22;5203;48.976;8.306;2023-05-07T00:37:55;16.40;84.70
10316;DHT22;5203;48.976;8.306;2023-05-07T00:40:21;16.40;84.50
10316;DHT22;5203;48.976;8.306;2023-05-07T00:42:46;16.40;84.50
10316;DHT22;5203;48.976;8.306;2023-05-07T00:45:13;16.40;84.50
10316;DHT22;5203;48.976;8.306;2023-05-07T00:47:39;16.40;84.20
10316;DHT22;5203;48.976;8.306;2023-05-07T00:50:06;16.40;84.30
10316;DHT22;5203;48.976;8.306;2023-05-07T00:52:32;16.20;84.90
10316;DHT22;5203;48.976;8.306;2023-05-07T00:55:01;16.30;85.40
10316;DHT22;5203;48.976;8.306;2023-05-07T00:57:37;16.30;85.00
10316;DHT22;5203;48.976;8.306;2023-05-07T01:00:05;16.20;85.10
10316;DHT22;5203;48.976;8.306;2023-05-07T01:02:31;16.30;84.80
10316;DHT22;5203;48.976;8.306;2023-05-07T01:04:56;16.30;84.90
10316;DHT22;5203;48.976;8.306;2023-05-07T01:07:23;16.30;84.80
10316;DHT22;5203;48.976;8.306;2023-05-07T01:09:49;16.30;84.90
10316;DHT22;5203;48.976;8.306;2023-05-07T01:12:15;16.30;84.80
10316;DHT22;5203;48.976;8.306;2023-05-07T01:14:42;16.20;84.90
10316;DHT22;5203;48.976;8.306;2023-05-07T01:17:08;16.20;85.00
10316;DHT22;5203;48.976;8.306;2023-05-07T01:19:34;16.20;85.40
10316;DHT22;5203;48.976;8.306;2023-05-07T01:22:08;16.20;85.30
10316;DHT22;5203;48.976;8.306;2023-05-07T01:24:36;16.20;85.10
10316;DHT22;5203;48.976;8.306;2023-05-07T01:27:02;16.30;84.60
10316;DHT22;5203;48.976;8.306;2023-05-07T01:29:28;16.30;84.30
10316;DHT22;5203;48.976;8.306;2023-05-07T01:31:55;16.40;84.40
10316;DHT22;5203;48.976;8.306;2023-05-07T01:34:22;16.30;84.30
10316;DHT22;5203;48.976;8.306;2023-05-07T01:36:48;16.20;84.90
10316;DHT22;5203;48.976;8.306;2023-05-07T01:39:15;16.20;86.10
10316;DHT22;5203;48.976;8.306;2023-05-07T01:41:41;16.20;85.90
10316;DHT22;5203;48.976;8.306;2023-05-07T01:44:08;16.10;86.30
10316;DHT22;5203;48.976;8.306;2023-05-07T01:46:35;16.20;86.00
10316;DHT22;5203;48.976;8.306;2023-05-07T01:49:01;16.10;85.90
10316;DHT22;5203;48.976;8.306;2023-05-07T01:51:27;16.10;87.40
10316;DHT22;5203;48.976;8.306;2023-05-07T01:53:53;16.00;87.20
10316;DHT22;5203;48.976;8.306;2023-05-07T01:56:19;16.00;87.50
10316;DHT22;5203;48.976;8.306;2023-05-07T01:58:45;16.00;87.50
10316;DHT22;5203;48.976;8.306;2023-05-07T02:01:14;16.10;87.00
10316;DHT22;5203;48.976;8.306;2023-05-07T02:03:40;16.20;86.50
10316;DHT22;5203;48.976;8.306;2023-05-07T02:06:05;16.20;86.00
10316;DHT22;5203;48.976;8.306;2023-05-07T02:08:31;16.30;86.10
10316;DHT22;5203;48.976;8.306;2023-05-07T02:10:57;16.40;85.30
10316;DHT22;5203;48.976;8.306;2023-05-07T02:13:22;16.40;85.20
10316;DHT22;5203;48.976;8.306;2023-05-07T02:15:50;16.40;84.80
10316;DHT22;5203;48.976;8.306;2023-05-07T02:18:17;16.30;85.30
10316;DHT22;5203;48.976;8.306;2023-05-07T02:20:43;16.20;85.10
10316;DHT22;5203;48.976;8.306;2023-05-07T02:23:08;16.10;85.80
10316;DHT22;5203;48.976;8.306;2023-05-07T02:25:34;16.00;86.40
10316;DHT22;5203;48.976;8.306;2023-05-07T02:28:00;16.00;86.60
10316;DHT22;5203;48.976;8.306;2023-05-07T02:30:25;16.00;87.00
10316;DHT22;5203;48.976;8.306;2023-05-07T02:32:51;16.00;87.00
10316;DHT22;5203;48.976;8.306;2023-05-07T02:35:17;16.00;86.50
10316;DHT22;5203;48.976;8.306;2023-05-07T02:37:43;16.00;86.00
10316;DHT22;5203;48.976;8.306;2023-05-07T02:40:09;16.00;86.30
10316;DHT22;5203;48.976;8.306;2023-05-07T02:42:35;15.90;86.30
10316;DHT22;5203;48.976;8.306;2023-05-07T02:45:00;15.90;86.40
10316;DHT22;5203;48.976;8.306;2023-05-07T02:47:26;15.80;87.10
10316;DHT22;5203;48.976;8.306;2023-05-07T02:49:55;15.80;87.70
10316;DHT22;5203;48.976;8.306;2023-05-07T02:52:21;15.70;87.90
10316;DHT22;5203;48.976;8.306;2023-05-07T02:54:47;15.80;87.60
10316;DHT22;5203;48.976;8.306;2023-05-07T02:57:13;15.90;87.00
10316;DHT22;5203;48.976;8.306;2023-05-07T02:59:38;15.90;86.20
10316;DHT22;5203;48.976;8.306;2023-05-07T03:02:04;15.90;86.20
10316;DHT22;5203;48.976;8.306;2023-05-07T03:04:29;16.00;85.70
10316;DHT22;5203;48.976;8.306;2023-05-07T03:06:55;16.00;85.60
10316;DHT22;5203;48.976;8.306;2023-05-07T03:09:21;16.00;85.60
10316;DHT22;5203;48.976;8.306;2023-05-07T03:11:46;15.90;86.20
10316;DHT22;5203;48.976;8.306;2023-05-07T03:14:12;15.80;86.40
10316;DHT22;5203;48.976;8.306;2023-05-07T03:16:38;15.60;87.90
10316;DHT22;5203;48.976;8.306;2023-05-07T03:19:04;15.50;88.40
10316;DHT22;5203;48.976;8.306;2023-05-07T03:21:30;15.50;88.80
10316;DHT22;5203;48.976;8.306;2023-05-07T03:23:56;15.50;88.50
10316;DHT22;5203;48.976;8.306;2023-05-07T03:26:22;15.50;88.30
10316;DHT22;5203;48.976;8.306;2023-05-07T03:28:47;15.50;88.40
10316;DHT22;5203;48.976;8.306;2023-05-07T03:31:13;15.50;88.10
10316;DHT22;5203;48.976;8.306;2023-05-07T03:33:53;15.40;88.80
10316;DHT22;5203;48.976;8.306;2023-05-07T03:36:19;15.40;88.40
10316;DHT22;5203;48.976;8.306;2023-05-07T03:38:44;15.40;88.20
10316;DHT22;5203;48.976;8.306;2023-05-07T03:41:10;15.40;88.30
10316;DHT22;5203;48.976;8.306;2023-05-07T03:43:36;15.50;88.10
10316;DHT22;5203;48.976;8.306;2023-05-07T03:46:01;15.30;89.50
10316;DHT22;5203;48.976;8.306;2023-05-07T03:48:27;15.10;92.30
10316;DHT22;5203;48.976;8.306;2023-05-07T03:50:53;14.90;94.30
10316;DHT22;5203;48.976;8.306;2023-05-07T03:53:18;14.90;95.20
10316;DHT22;5203;48.976;8.306;2023-05-07T03:55:44;14.90;93.00
10316;DHT22;5203;48.976;8.306;2023-05-07T03:58:09;15.00;92.70
10316;DHT22;5203;48.976;8.306;2023-05-07T04:00:35;15.10;91.80
10316;DHT22;5203;48.976;8.306;2023-05-07T04:03:04;15.20;91.00
10316;DHT22;5203;48.976;8.306;2023-05-07T04:05:30;15.10;90.70
10316;DHT22;5203;48.976;8.306;2023-05-07T04:07:58;15.00;91.60
10316;DHT22;5203;48.976;8.306;2023-05-07T04:10:23;15.10;91.50
10316;DHT22;5203;48.976;8.306;2023-05-07T04:12:49;15.10;90.40
10316;DHT22;5203;48.976;8.306;2023-05-07T04:15:15;15.10;90.20
10316;DHT22;5203;48.976;8.306;2023-05-07T04:17:40;15.00;90.20
10316;DHT22;5203;48.976;8.306;2023-05-07T04:20:09;15.10;90.60
10316;DHT22;5203;48.976;8.306;2023-05-07T04:22:36;15.20;89.90
10316;DHT22;5203;48.976;8.306;2023-05-07T04:25:02;15.20;89.50
10316;DHT22;5203;48.976;8.306;2023-05-07T04:27:28;15.30;88.60
10316;DHT22;5203;48.976;8.306;2023-05-07T04:29:54;15.40;88.40
10316;DHT22;5203;48.976;8.306;2023-05-07T04:32:23;15.50;89.20
10316;DHT22;5203;48.976;8.306;2023-05-07T04:34:50;15.50;88.90
10316;DHT22;5203;48.976;8.306;2023-05-07T04:37:16;15.40;89.20
10316;DHT22;5203;48.976;8.306;2023-05-07T04:39:42;15.40;89.40
10316;DHT22;5203;48.976;8.306;2023-05-07T04:42:07;15.40;89.40
10316;DHT22;5203;48.976;8.306;2023-05-07T04:44:34;15.40;89.50
10316;DHT22;5203;48.976;8.306;2023-05-07T04:47:02;15.30;90.40
10316;DHT22;5203;48.976;8.306;2023-05-07T04:49:27;15.30;90.80
10316;DHT22;5203;48.976;8.306;2023-05-07T04:51:53;15.30;90.70
10316;DHT22;5203;48.976;8.306;2023-05-07T04:54:19;15.30;91.10
10316;DHT22;5203;48.976;8.306;2023-05-07T04:56:44;15.40;90.70
10316;DHT22;5203;48.976;8.306;2023-05-07T04:59:10;15.40;90.10
10316;DHT22;5203;48.976;8.306;2023-05-07T05:01:36;15.50;89.50
10316;DHT22;5203;48.976;8.306;2023-05-07T05:04:01;15.40;90.00
10316;DHT22;5203;48.976;8.306;2023-05-07T05:06:28;15.40;90.30
10316;DHT22;5203;48.976;8.306;2023-05-07T05:08:54;15.50;90.20
10316;DHT22;5203;48.976;8.306;2023-05-07T05:11:20;15.50;90.50
10316;DHT22;5203;48.976;8.306;2023-05-07T05:13:46;15.60;89.70
10316;DHT22;5203;48.976;8.306;2023-05-07T05:16:14;15.70;89.40
10316;DHT22;5203;48.976;8.306;2023-05-07T05:18:40;15.70;89.40
10316;DHT22;5203;48.976;8.306;2023-05-07T05:21:06;15.60;89.60
10316;DHT22;5203;48.976;8.306;2023-05-07T05:23:32;15.60;90.20
10316;DHT22;5203;48.976;8.306;2023-05-07T05:25:58;15.70;90.10
10316;DHT22;5203;48.976;8.306;2023-05-07T05:28:23;15.80;90.00
10316;DHT22;5203;48.976;8.306;2023-05-07T05:30:49;15.90;89.10
10316;DHT22;5203;48.976;8.306;2023-05-07T05:33:15;16.00;88.10
10316;DHT22;5203;48.976;8.306;2023-05-07T05:35:41;16.00;87.30
10316;DHT22;5203;48.976;8.306;2023-05-07T05:38:07;16.00;86.80
10316;DHT22;5203;48.976;8.306;2023-05-07T05:40:33;15.80;88.10
10316;DHT22;5203;48.976;8.306;2023-05-07T05:42:59;15.80;88.80
10316;DHT22;5203;48.976;8.306;2023-05-07T05:45:25;15.70;89.50
10316;DHT22;5203;48.976;8.306;2023-05-07T05:47:50;15.80;88.60
10316;DHT22;5203;48.976;8.306;2023-05-07T05:50:16;15.80;88.00
10316;DHT22;5203;48.976;8.306;2023-05-07T05:52:42;15.70;89.30
10316;DHT22;5203;48.976;8.306;2023-05-07T05:55:08;15.80;88.90
10316;DHT22;5203;48.976;8.306;2023-05-07T05:57:33;15.90;88.60
10316;DHT22;5203;48.976;8.306;2023-05-07T06:00:00;15.90;88.20
10316;DHT22;5203;48.976;8.306;2023-05-07T06:02:26;16.00;88.70
10316;DHT22;5203;48.976;8.306;2023-05-07T06:04:52;16.10;87.70
10316;DHT22;5203;48.976;8.306;2023-05-07T06:07:17;16.20;86.40
10316;DHT22;5203;48.976;8.306;2023-05-07T06:09:43;16.40;85.60
10316;DHT22;5203;48.976;8.306;2023-05-07T06:12:09;16.30;86.40
10316;DHT22;5203;48.976;8.306;2023-05-07T06:14:35;16.30;86.70
10316;DHT22;5203;48.976;8.306;2023-05-07T06:17:00;16.30;86.10
10316;DHT22;5203;48.976;8.306;2023-05-07T06:19:26;16.30;85.70
10316;DHT22;5203;48.976;8.306;2023-05-07T06:21:53;16.30;86.00
10316;DHT22;5203;48.976;8.306;2023-05-07T06:24:19;16.40;86.00
10316;DHT22;5203;48.976;8.306;2023-05-07T06:26:45;16.50;86.00
10316;DHT22;5203;48.976;8.306;2023-05-07T06:29:10;16.50;84.70
10316;DHT22;5203;48.976;8.306;2023-05-07T06:31:36;16.70;84.70
10316;DHT22;5203;48.976;8.306;2023-05-07T06:34:01;16.80;84.30
10316;DHT22;5203;48.976;8.306;2023-05-07T06:36:28;16.80;82.90
10316;DHT22;5203;48.976;8.306;2023-05-07T06:38:53;16.80;83.00
10316;DHT22;5203;48.976;8.306;2023-05-07T06:41:19;17.10;82.20
10316;DHT22;5203;48.976;8.306;2023-05-07T06:43:46;17.30;79.60
10316;DHT22;5203;48.976;8.306;2023-05-07T06:46:11;17.30;78.40
10316;DHT22;5203;48.976;8.306;2023-05-07T06:48:37;17.30;78.30
10316;DHT22;5203;48.976;8.306;2023-05-07T06:51:03;17.30;80.60
10316;DHT22;5203;48.976;8.306;2023-05-07T06:53:28;17.40;79.60
10316;DHT22;5203;48.976;8.306;2023-05-07T06:55:56;17.50;79.40
10316;DHT22;5203;48.976;8.306;2023-05-07T06:58:22;17.60;79.50
10316;DHT22;5203;48.976;8.306;2023-05-07T07:00:47;17.60;78.40
10316;DHT22;5203;48.976;8.306;2023-05-07T07:03:13;17.60;77.20
10316;DHT22;5203;48.976;8.306;2023-05-07T07:05:40;17.80;77.70
10316;DHT22;5203;48.976;8.306;2023-05-07T07:08:06;17.90;76.00
10316;DHT22;5203;48.976;8.306;2023-05-07T07:10:32;17.90;76.20
10316;DHT22;5203;48.976;8.306;2023-05-07T07:12:57;17.70;75.40
10316;DHT22;5203;48.976;8.306;2023-05-07T07:15:23;17.80;77.00
10316;DHT22;5203;48.976;8.306;2023-05-07T07:17:50;17.80;76.80
10316;DHT22;5203;48.976;8.306;2023-05-07T07:20:16;17.70;77.90
10316;DHT22;5203;48.976;8.306;2023-05-07T07:22:42;17.70;77.20
10316;DHT22;5203;48.976;8.306;2023-05-07T07:25:08;17.60;78.60
10316;DHT22;5203;48.976;8.306;2023-05-07T07:27:34;17.70;77.70
10316;DHT22;5203;48.976;8.306;2023-05-07T07:29:59;17.80;76.30
10316;DHT22;5203;48.976;8.306;2023-05-07T07:32:25;18.00;75.00
10316;DHT22;5203;48.976;8.306;2023-05-07T07:34:51;18.10;75.20
10316;DHT22;5203;48.976;8.306;2023-05-07T07:37:17;18.20;74.10
10316;DHT22;5203;48.976;8.306;2023-05-07T07:39:42;17.90;76.20
10316;DHT22;5203;48.976;8.306;2023-05-07T07:42:08;17.50;78.10
10316;DHT22;5203;48.976;8.306;2023-05-07T07:44:34;17.50;82.10
10316;DHT22;5203;48.976;8.306;2023-05-07T07:46:59;17.60;79.70
10316;DHT22;5203;48.976;8.306;2023-05-07T07:49:26;17.90;79.20
10316;DHT22;5203;48.976;8.306;2023-05-07T07:51:51;17.90;79.10
10316;DHT22;5203;48.976;8.306;2023-05-07T07:54:17;17.80;80.60
10316;DHT22;5203;48.976;8.306;2023-05-07T07:56:43;17.90;78.70
10316;DHT22;5203;48.976;8.306;2023-05-07T07:59:08;18.00;79.80
10316;DHT22;5203;48.976;8.306;2023-05-07T08:01:34;18.10;77.70
10316;DHT22;5203;48.976;8.306;2023-05-07T08:04:00;18.40;74.90
10316;DHT22;5203;48.976;8.306;2023-05-07T08:06:25;18.70;73.80
10316;DHT22;5203;48.976;8.306;2023-05-07T08:08:52;18.70;73.10
10316;DHT22;5203;48.976;8.306;2023-05-07T08:11:17;18.60;72.40
10316;DHT22;5203;48.976;8.306;2023-05-07T08:13:43;18.90;72.60
10316;DHT22;5203;48.976;8.306;2023-05-07T08:16:09;19.20;70.80
10316;DHT22;5203;48.976;8.306;2023-05-07T08:18:35;19.40;70.70
10316;DHT22;5203;48.976;8.306;2023-05-07T08:21:01;19.40;72.70
10316;DHT22;5203;48.976;8.306;2023-05-07T08:23:26;19.30;75.90
10316;DHT22;5203;48.976;8.306;2023-05-07T08:25:53;19.30;73.10
10316;DHT22;5203;48.976;8.306;2023-05-07T08:28:19;19.30;72.50
10316;DHT22;5203;48.976;8.306;2023-05-07T08:30:46;19.30;72.00
10316;DHT22;5203;48.976;8.306;2023-05-07T08:33:12;19.00;71.40
10316;DHT22;5203;48.976;8.306;2023-05-07T08:35:38;19.10;72.90
10316;DHT22;5203;48.976;8.306;2023-05-07T08:38:04;19.30;72.70
10316;DHT22;5203;48.976;8.306;2023-05-07T08:40:35;19.60;69.20
10316;DHT22;5203;48.976;8.306;2023-05-07T08:43:02;19.60;70.00
10316;DHT22;5203;48.976;8.306;2023-05-07T08:45:30;19.90;69.90
10316;DHT22;5203;48.976;8.306;2023-05-07T08:47:59;19.90;71.60
10316;DHT22;5203;48.976;8.306;2023-05-07T08:50:27;20.10;70.30
10316;DHT22;5203;48.976;8.306;2023-05-07T08:52:53;20.30;67.60
10316;DHT22;5203;48.976;8.306;2023-05-07T08:55:19;20.30;67.20
10316;DHT22;5203;48.976;8.306;2023-05-07T08:57:45;20.30;67.20
10316;DHT22;5203;48.976;8.306;2023-05-07T09:00:11;20.00;67.30
10316;DHT22;5203;48.976;8.306;2023-05-07T09:02:37;20.40;64.60
10316;DHT22;5203;48.976;8.306;2023-05-07T09:05:03;20.70;63.90
10316;DHT22;5203;48.976;8.306;2023-05-07T09:07:30;20.60;63.90
10316;DHT22;5203;48.976;8.306;2023-05-07T09:09:56;20.90;64.10
10316;DHT22;5203;48.976;8.306;2023-05-07T09:12:22;21.20;62.70
10316;DHT22;5203;48.976;8.306;2023-05-07T09:14:49;21.40;62.80
10316;DHT22;5203;48.976;8.306;2023-05-07T09:17:16;21.40;62.30
10316;DHT22;5203;48.976;8.306;2023-05-07T09:19:42;21.50;62.60
10316;DHT22;5203;48.976;8.306;2023-05-07T09:22:08;21.80;61.00
10316;DHT22;5203;48.976;8.306;2023-05-07T09:24:34;21.50;63.90
10316;DHT22;5203;48.976;8.306;2023-05-07T09:27:02;21.60;65.00
10316;DHT22;5203;48.976;8.306;2023-05-07T09:29:28;21.80;62.40
10316;DHT22;5203;48.976;8.306;2023-05-07T09:32:05;21.90;61.40
10316;DHT22;5203;48.976;8.306;2023-05-07T09:34:31;22.10;60.40
10316;DHT22;5203;48.976;8.306;2023-05-07T09:37:02;22.20;60.30
10316;DHT22;5203;48.976;8.306;2023-05-07T09:39:49;22.00;59.80
10316;DHT22;5203;48.976;8.306;2023-05-07T09:42:15;22.40;59.50
10316;DHT22;5203;48.976;8.306;2023-05-07T09:44:41;22.70;58.50
10316;DHT22;5203;48.976;8.306;2023-05-07T09:47:08;23.00;57.20
10316;DHT22;5203;48.976;8.306;2023-05-07T09:49:36;23.20;55.50
10316;DHT22;5203;48.976;8.306;2023-05-07T09:52:04;23.20;55.10
10316;DHT22;5203;48.976;8.306;2023-05-07T09:54:36;23.20;53.60
10316;DHT22;5203;48.976;8.306;2023-05-07T09:57:04;22.80;53.30
10316;DHT22;5203;48.976;8.306;2023-05-07T09:59:31;22.80;55.90
10316;DHT22;5203;48.976;8.306;2023-05-07T10:01:58;23.10;57.20
10316;DHT22;5203;48.976;8.306;2023-05-07T10:04:27;23.00;52.20
10316;DHT22;5203;48.976;8.306;2023-05-07T10:06:54;23.30;51.80
10316;DHT22;5203;48.976;8.306;2023-05-07T10:09:21;23.90;49.00
10316;DHT22;5203;48.976;8.306;2023-05-07T10:11:49;23.80;47.20
10316;DHT22;5203;48.976;8.306;2023-05-07T10:14:15;23.80;49.40
10316;DHT22;5203;48.976;8.306;2023-05-07T10:16:41;23.80;50.10
10316;DHT22;5203;48.976;8.306;2023-05-07T10:19:08;24.10;49.10
10316;DHT22;5203;48.976;8.306;2023-05-07T10:21:48;24.60;47.50
10316;DHT22;5203;48.976;8.306;2023-05-07T10:24:22;24.80;46.30
10316;DHT22;5203;48.976;8.306;2023-05-07T10:26:52;25.10;46.90
10316;DHT22;5203;48.976;8.306;2023-05-07T10:35:03;25.20;45.90
10316;DHT22;5203;48.976;8.306;2023-05-07T10:37:30;25.10;46.30
10316;DHT22;5203;48.976;8.306;2023-05-07T10:39:56;25.00;47.00
10316;DHT22;5203;48.976;8.306;2023-05-07T10:42:23;25.20;46.20
10316;DHT22;5203;48.976;8.306;2023-05-07T10:44:49;25.40;47.30
10316;DHT22;5203;48.976;8.306;2023-05-07T10:47:16;25.80;44.70
10316;DHT22;5203;48.976;8.306;2023-05-07T10:54:39;26.60;43.60
10316;DHT22;5203;48.976;8.306;2023-05-07T10:57:34;26.70;42.20
10316;DHT22;5203;48.976;8.306;2023-05-07T11:00:03;26.90;42.40
10316;DHT22;5203;48.976;8.306;2023-05-07T11:05:29;26.70;42.10
10316;DHT22;5203;48.976;8.306;2023-05-07T11:08:03;26.50;45.00
10316;DHT22;5203;48.976;8.306;2023-05-07T11:10:49;26.60;40.30
10316;DHT22;5203;48.976;8.306;2023-05-07T11:13:15;26.80;40.80
10316;DHT22;5203;48.976;8.306;2023-05-07T11:15:46;26.80;39.50
10316;DHT22;5203;48.976;8.306;2023-05-07T11:18:17;26.90;39.40
10316;DHT22;5203;48.976;8.306;2023-05-07T11:26:04;27.10;41.40
10316;DHT22;5203;48.976;8.306;2023-05-07T11:28:31;27.20;38.90
10316;DHT22;5203;48.976;8.306;2023-05-07T11:31:02;27.20;39.70
10316;DHT22;5203;48.976;8.306;2023-05-07T11:33:28;27.80;38.90
10316;DHT22;5203;48.976;8.306;2023-05-07T11:35:55;27.60;37.80
10316;DHT22;5203;48.976;8.306;2023-05-07T11:38:21;26.90;39.50
10316;DHT22;5203;48.976;8.306;2023-05-07T11:40:54;27.60;37.90
10316;DHT22;5203;48.976;8.306;2023-05-07T11:43:20;28.00;38.00
10316;DHT22;5203;48.976;8.306;2023-05-07T11:45:47;27.80;38.50
10316;DHT22;5203;48.976;8.306;2023-05-07T11:48:16;28.00;39.30
10316;DHT22;5203;48.976;8.306;2023-05-07T11:50:51;28.40;39.20
10316;DHT22;5203;48.976;8.306;2023-05-07T11:53:18;28.70;37.30
10316;DHT22;5203;48.976;8.306;2023-05-07T11:55:44;28.80;36.20
10316;DHT22;5203;48.976;8.306;2023-05-07T11:58:12;28.60;36.40
10316;DHT22;5203;48.976;8.306;2023-05-07T12:00:37;28.20;37.40
10316;DHT22;5203;48.976;8.306;2023-05-07T12:03:04;28.20;37.60
10316;DHT22;5203;48.976;8.306;2023-05-07T12:05:30;28.30;37.20
10316;DHT22;5203;48.976;8.306;2023-05-07T12:07:59;28.10;38.80
10316;DHT22;5203;48.976;8.306;2023-05-07T12:10:25;27.90;38.40
10316;DHT22;5203;48.976;8.306;2023-05-07T12:12:51;28.30;38.20
10316;DHT22;5203;48.976;8.306;2023-05-07T12:15:17;28.40;39.30
10316;DHT22;5203;48.976;8.306;2023-05-07T12:17:43;28.10;40.20
10316;DHT22;5203;48.976;8.306;2023-05-07T12:20:09;28.40;37.80
10316;DHT22;5203;48.976;8.306;2023-05-07T12:22:36;27.70;39.10
10316;DHT22;5203;48.976;8.306;2023-05-07T12:25:02;27.50;41.90
10316;DHT22;5203;48.976;8.306;2023-05-07T12:27:28;27.20;42.00
10316;DHT22;5203;48.976;8.306;2023-05-07T12:29:54;27.30;40.30
10316;DHT22;5203;48.976;8.306;2023-05-07T12:32:21;27.40;41.40
10316;DHT22;5203;48.976;8.306;2023-05-07T12:34:50;27.30;42.10
10316;DHT22;5203;48.976;8.306;2023-05-07T12:37:23;27.30;41.30
10316;DHT22;5203;48.976;8.306;2023-05-07T12:39:50;27.20;42.50
10316;DHT22;5203;48.976;8.306;2023-05-07T12:42:36;26.90;42.00
10316;DHT22;5203;48.976;8.306;2023-05-07T12:45:12;26.70;43.50
10316;DHT22;5203;48.976;8.306;2023-05-07T12:47:38;26.50;45.60
10316;DHT22;5203;48.976;8.306;2023-05-07T12:50:07;26.50;44.70
10316;DHT22;5203;48.976;8.306;2023-05-07T12:52:33;26.30;47.20
10316;DHT22;5203;48.976;8.306;2023-05-07T12:55:06;26.20;47.70
10316;DHT22;5203;48.976;8.306;2023-05-07T12:57:45;26.10;48.60
10316;DHT22;5203;48.976;8.306;2023-05-07T13:00:11;26.20;48.80
10316;DHT22;5203;48.976;8.306;2023-05-07T13:02:39;26.40;49.20
10316;DHT22;5203;48.976;8.306;2023-05-07T13:05:05;26.10;50.30
10316;DHT22;5203;48.976;8.306;2023-05-07T13:07:31;26.20;48.30
10316;DHT22;5203;48.976;8.306;2023-05-07T13:09:57;26.10;47.70
10316;DHT22;5203;48.976;8.306;2023-05-07T13:12:22;26.10;48.00
10316;DHT22;5203;48.976;8.306;2023-05-07T13:14:48;26.20;48.50
10316;DHT22;5203;48.976;8.306;2023-05-07T13:17:13;26.20;46.60
10316;DHT22;5203;48.976;8.306;2023-05-07T13:19:39;26.20;45.50
10316;DHT22;5203;48.976;8.306;2023-05-07T13:22:05;26.40;48.30
10316;DHT22;5203;48.976;8.306;2023-05-07T13:24:31;26.40;47.00
10316;DHT22;5203;48.976;8.306;2023-05-07T13:26:56;26.60;46.20
10316;DHT22;5203;48.976;8.306;2023-05-07T13:29:22;26.90;44.70
10316;DHT22;5203;48.976;8.306;2023-05-07T13:31:57;26.90;45.30
10316;DHT22;5203;48.976;8.306;2023-05-07T13:34:23;26.60;48.20
10316;DHT22;5203;48.976;8.306;2023-05-07T13:36:48;26.30;46.70
10316;DHT22;5203;48.976;8.306;2023-05-07T13:39:14;26.40;46.20
10316;DHT22;5203;48.976;8.306;2023-05-07T13:41:39;26.70;46.50
10316;DHT22;5203;48.976;8.306;2023-05-07T13:44:05;27.00;46.10
10316;DHT22;5203;48.976;8.306;2023-05-07T13:46:31;27.20;44.90
10316;DHT22;5203;48.976;8.306;2023-05-07T13:48:56;26.90;43.90
10316;DHT22;5203;48.976;8.306;2023-05-07T13:51:22;26.70;45.00
10316;DHT22;5203;48.976;8.306;2023-05-07T13:53:48;26.70;44.00
10316;DHT22;5203;48.976;8.306;2023-05-07T13:56:14;26.80;45.70
10316;DHT22;5203;48.976;8.306;2023-05-07T13:58:40;26.70;44.90
10316;DHT22;5203;48.976;8.306;2023-05-07T14:01:06;26.50;44.50
10316;DHT22;5203;48.976;8.306;2023-05-07T14:03:31;26.10;46.60
10316;DHT22;5203;48.976;8.306;2023-05-07T14:05:59;25.80;47.90
10316;DHT22;5203;48.976;8.306;2023-05-07T14:08:27;25.50;50.80
10316;DHT22;5203;48.976;8.306;2023-05-07T14:10:52;25.10;52.90
10316;DHT22;5203;48.976;8.306;2023-05-07T14:13:18;24.90;54.30
10316;DHT22;5203;48.976;8.306;2023-05-07T14:15:44;24.90;55.20
10316;DHT22;5203;48.976;8.306;2023-05-07T14:18:15;24.50;54.80
10316;DHT22;5203;48.976;8.306;2023-05-07T14:20:40;24.30;56.30
10316;DHT22;5203;48.976;8.306;2023-05-07T14:23:06;24.20;56.50
10316;DHT22;5203;48.976;8.306;2023-05-07T14:25:32;24.50;55.50
10316;DHT22;5203;48.976;8.306;2023-05-07T14:27:58;24.40;54.30
10316;DHT22;5203;48.976;8.306;2023-05-07T14:30:23;24.50;54.00
10316;DHT22;5203;48.976;8.306;2023-05-07T14:32:50;24.60;52.70
10316;DHT22;5203;48.976;8.306;2023-05-07T14:35:16;24.60;52.40
10316;DHT22;5203;48.976;8.306;2023-05-07T14:37:42;24.50;50.30
10316;DHT22;5203;48.976;8.306;2023-05-07T14:40:08;24.70;49.40
10316;DHT22;5203;48.976;8.306;2023-05-07T14:42:34;24.40;48.60
10316;DHT22;5203;48.976;8.306;2023-05-07T14:44:59;24.30;48.60
10316;DHT22;5203;48.976;8.306;2023-05-07T14:47:25;24.00;49.00
10316;DHT22;5203;48.976;8.306;2023-05-07T14:49:51;23.80;48.90
10316;DHT22;5203;48.976;8.306;2023-05-07T14:52:16;23.70;50.50
10316;DHT22;5203;48.976;8.306;2023-05-07T14:54:42;23.90;51.80
10316;DHT22;5203;48.976;8.306;2023-05-07T14:57:09;24.20;51.10
10316;DHT22;5203;48.976;8.306;2023-05-07T14:59:35;24.00;50.20
10316;DHT22;5203;48.976;8.306;2023-05-07T15:02:02;23.90;51.30
10316;DHT22;5203;48.976;8.306;2023-05-07T15:04:30;23.90;51.90
10316;DHT22;5203;48.976;8.306;2023-05-07T15:06:56;23.80;50.70
10316;DHT22;5203;48.976;8.306;2023-05-07T15:09:22;23.80;51.80
10316;DHT22;5203;48.976;8.306;2023-05-07T15:11:47;23.90;53.00
10316;DHT22;5203;48.976;8.306;2023-05-07T15:14:15;24.10;51.20
10316;DHT22;5203;48.976;8.306;2023-05-07T15:16:41;24.10;51.80
10316;DHT22;5203;48.976;8.306;2023-05-07T15:19:07;24.20;50.70
10316;DHT22;5203;48.976;8.306;2023-05-07T15:21:32;24.30;51.80
10316;DHT22;5203;48.976;8.306;2023-05-07T15:24:01;24.60;51.50
10316;DHT22;5203;48.976;8.306;2023-05-07T15:26:27;24.90;54.20
10316;DHT22;5203;48.976;8.306;2023-05-07T15:28:53;25.00;54.70
10316;DHT22;5203;48.976;8.306;2023-05-07T15:31:21;25.00;55.40
10316;DHT22;5203;48.976;8.306;2023-05-07T15:33:46;24.70;57.10
10316;DHT22;5203;48.976;8.306;2023-05-07T15:36:12;24.50;55.00
10316;DHT22;5203;48.976;8.306;2023-05-07T15:38:38;24.40;54.90
10316;DHT22;5203;48.976;8.306;2023-05-07T15:41:04;24.60;54.80
10316;DHT22;5203;48.976;8.306;2023-05-07T15:43:29;24.60;53.80
10316;DHT22;5203;48.976;8.306;2023-05-07T15:45:55;24.30;53.80
10316;DHT22;5203;48.976;8.306;2023-05-07T15:48:21;24.20;53.30
10316;DHT22;5203;48.976;8.306;2023-05-07T15:50:47;24.20;52.80
10316;DHT22;5203;48.976;8.306;2023-05-07T15:53:13;24.20;52.20
10316;DHT22;5203;48.976;8.306;2023-05-07T15:55:40;24.20;52.90
10316;DHT22;5203;48.976;8.306;2023-05-07T15:58:07;24.40;53.10
10316;DHT22;5203;48.976;8.306;2023-05-07T16:00:32;24.30;53.00